Time;durP1;ratioP1;P1;durP2;ratioP2;P2;SDS_P1;SDS_P2;PMS_P1;PMS_P2;Temp;Humidity;BMP_temperature;BMP_pressure;BME280_temperature;BME280_humidity;BME280_pressure;Samples;Min_cycle;Max_cycle;Signal;HPM_P1;HPM_P2
2022/05/22 00:02:07;;;;;;;7.53;3.95;;;;;;;14.06;100.00;96578.19;5065794;28;20056;-49
2022/05/22 00:04:35;;;;;;;4.47;4.00;;;;;;;14.09;100.00;96569.91;5068470;28;20091;-53
2022/05/22 00:07:06;;;;;;;6.40;4.20;;;;;;;13.99;100.00;96572.69;5066345;28;20536;-55
2022/05/22 00:09:35;;;;;;;6.40;4.10;;;;;;;14.01;100.00;96566.25;5067093;28;20114;-47
2022/05/22 00:12:05;;;;;;;8.98;4.40;;;;;;;13.93;100.00;96570.69;5068345;28;20060;-46
2022/05/22 00:14:35;;;;;;;4.07;3.50;;;;;;;13.83;100.00;96564.69;5065549;28;20056;-52
2022/05/22 00:17:06;;;;;;;5.63;3.65;;;;;;;13.83;100.00;96564.69;5066635;28;20067;-47
2022/05/22 00:19:35;;;;;;;5.32;3.80;;;;;;;13.80;100.00;96568.53;5063669;28;20121;-49
2022/05/22 00:22:05;;;;;;;4.95;3.60;;;;;;;13.69;100.00;96561.69;5066960;28;20110;-48
2022/05/22 00:24:34;;;;;;;7.57;3.97;;;;;;;13.76;100.00;96557.41;5066912;28;20573;-51
2022/05/22 00:27:04;;;;;;;6.95;3.90;;;;;;;13.65;100.00;96564.81;5066812;28;20067;-52
2022/05/22 00:29:32;;;;;;;5.70;3.78;;;;;;;-146.19;100.00;58918.88;5066394;28;20749;-52
2022/05/22 00:32:00;;;;;;;4.88;3.90;;;;;;;-146.19;100.00;58918.88;5067024;28;20075;-50
2022/05/22 00:34:29;;;;;;;5.00;3.78;;;;;;;-146.19;100.00;58918.88;5064316;28;20061;-52
2022/05/22 00:36:57;;;;;;;4.07;3.67;;;;;;;-146.19;100.00;58918.88;5064244;28;20076;-50
2022/05/22 00:39:27;;;;;;;7.63;4.10;;;;;;;-146.19;100.00;58918.88;5067247;28;20076;-47
2022/05/22 00:41:57;;;;;;;5.63;3.67;;;;;;;-146.19;100.00;58918.88;5064994;28;20072;-55
2022/05/22 00:44:26;;;;;;;6.47;3.95;;;;;;;-146.19;100.00;58918.88;5065629;28;20538;-54
2022/05/22 00:46:54;;;;;;;5.65;4.35;;;;;;;-146.19;100.00;58918.88;5066855;28;20189;-45
2022/05/22 00:49:25;;;;;;;5.90;3.95;;;;;;;-146.19;100.00;58918.88;5065326;28;20068;-50
2022/05/22 00:51:57;;;;;;;4.85;3.95;;;;;;;-146.19;100.00;58918.88;5063202;28;20083;-50
2022/05/22 00:54:29;;;;;;;6.80;4.07;;;;;;;-146.19;100.00;58918.88;5066664;28;20076;-48
2022/05/22 00:57:01;;;;;;;4.65;4.00;;;;;;;-146.19;100.00;58918.88;5065519;28;20523;-50
2022/05/22 00:59:33;;;;;;;5.38;3.90;;;;;;;-146.19;100.00;58918.88;5061271;28;20060;-46
2022/05/22 01:02:02;;;;;;;7.40;3.92;;;;;;;-146.19;100.00;58918.88;5064075;28;20060;-47
2022/05/22 01:04:32;;;;;;;6.47;4.30;;;;;;;-146.19;100.00;58918.88;5065957;28;20086;-50
2022/05/22 01:07:01;;;;;;;5.65;3.85;;;;;;;-146.19;100.00;58918.88;5065853;28;20076;-52
2022/05/22 01:09:30;;;;;;;6.60;4.10;;;;;;;-146.19;100.00;58918.88;5066900;28;20072;-51
2022/05/22 01:12:02;;;;;;;4.70;4.07;;;;;;;-146.19;100.00;58918.88;5065588;28;20064;-50
2022/05/22 01:14:34;;;;;;;7.90;4.35;;;;;;;-146.19;100.00;58918.88;5065988;28;20068;-55
2022/05/22 01:17:04;;;;;;;7.30;4.20;;;;;;;-146.19;100.00;58918.88;5054519;28;20460;-50
2022/05/22 01:19:32;;;;;;;7.60;4.18;;;;;;;-146.19;100.00;58918.88;5063754;28;20064;-49
2022/05/22 01:22:04;;;;;;;4.50;3.65;;;;;;;-146.19;100.00;58918.88;5065225;28;20474;-46
2022/05/22 01:24:32;;;;;;;5.53;4.15;;;;;;;-146.19;100.00;58918.88;5063341;28;20076;-46
2022/05/22 01:27:04;;;;;;;4.15;3.75;;;;;;;-146.19;100.00;58918.88;5058683;28;20064;-52
2022/05/22 01:29:38;;;;;;;7.82;4.18;;;;;;;-146.19;100.00;58918.88;5059735;28;20060;-46
2022/05/22 01:32:07;;;;;;;7.72;4.18;;;;;;;-146.19;100.00;58918.88;5060060;28;20064;-48
2022/05/22 01:34:35;;;;;;;5.53;4.30;;;;;;;-146.19;100.00;58918.88;5060484;28;20071;-53
2022/05/22 01:37:05;;;;;;;5.05;4.28;;;;;;;-146.19;100.00;58918.88;5065738;28;20075;-48
2022/05/22 01:39:34;;;;;;;4.28;3.88;;;;;;;-146.19;100.00;58918.88;5060580;28;20088;-48
2022/05/22 01:42:02;;;;;;;6.80;4.70;;;;;;;-146.19;100.00;58918.88;5064578;28;20056;-45
2022/05/22 01:44:30;;;;;;;5.28;4.72;;;;;;;-146.19;100.00;58918.88;5064289;28;20064;-45
2022/05/22 01:46:58;;;;;;;5.40;4.40;;;;;;;-146.19;100.00;58918.88;5064582;28;20064;-50
2022/05/22 01:49:26;;;;;;;6.88;4.85;;;;;;;-146.19;100.00;58918.88;5063917;28;20067;-45
2022/05/22 01:51:55;;;;;;;6.38;4.90;;;;;;;-146.19;100.00;58918.88;5060822;28;20087;-50
2022/05/22 01:54:24;;;;;;;7.03;4.60;;;;;;;-146.19;100.00;58918.88;5068716;28;20084;-51
2022/05/22 01:56:53;;;;;;;9.63;5.03;;;;;;;-146.19;100.00;58918.88;5067068;28;20069;-51
2022/05/22 01:59:21;;;;;;;6.53;5.20;;;;;;;-146.19;100.00;58918.88;5062070;28;20068;-52
2022/05/22 02:01:49;;;;;;;7.57;6.10;;;;;;;-146.19;100.00;58918.88;5065494;28;20064;-47
2022/05/22 02:04:17;;;;;;;6.20;5.45;;;;;;;-146.19;100.00;58918.88;5068345;28;20068;-51
2022/05/22 02:09:29;;;;;;;5.75;5.25;;;;;;;-146.19;100.00;58918.88;5064524;28;20084;-53
2022/05/22 02:11:58;;;;;;;5.80;5.13;;;;;;;-146.19;100.00;58918.88;5064064;28;20076;-46
2022/05/22 02:14:26;;;;;;;7.45;5.30;;;;;;;-146.19;100.00;58918.88;5065360;28;20060;-51
2022/05/22 02:16:54;;;;;;;5.43;4.72;;;;;;;-146.19;100.00;58918.88;5059200;28;20037;-51
2022/05/22 02:19:22;;;;;;;4.97;4.47;;;;;;;-146.19;100.00;58918.88;5064957;28;20060;-50
2022/05/22 02:21:51;;;;;;;6.85;4.72;;;;;;;-146.19;100.00;58918.88;5061451;28;20076;-49
2022/05/22 02:24:19;;;;;;;7.85;5.25;;;;;;;-146.19;100.00;58918.88;5064136;28;20076;-47
2022/05/22 02:26:48;;;;;;;6.68;4.90;;;;;;;-146.19;100.00;58918.88;5063717;28;20072;-51
2022/05/22 02:29:17;;;;;;;6.18;5.38;;;;;;;-146.19;100.00;58918.88;5065061;28;20087;-48
2022/05/22 02:31:45;;;;;;;5.75;4.82;;;;;;;-146.19;100.00;58918.88;5060349;28;20052;-48
2022/05/22 02:34:14;;;;;;;5.97;5.15;;;;;;;-146.19;100.00;58918.88;5064408;28;20488;-46
2022/05/22 02:36:42;;;;;;;6.38;5.40;;;;;;;-146.19;100.00;58918.88;5065485;28;20088;-49
2022/05/22 02:39:10;;;;;;;5.30;4.78;;;;;;;-146.19;100.00;58918.88;5064764;28;20538;-48
2022/05/22 02:41:38;;;;;;;5.70;4.85;;;;;;;-146.19;100.00;58918.88;5061894;28;20064;-45
2022/05/22 02:44:08;;;;;;;5.70;5.10;;;;;;;-146.19;100.00;58918.88;5066713;28;20075;-47
2022/05/22 02:46:36;;;;;;;7.60;5.30;;;;;;;-146.19;100.00;58918.88;5063411;28;20545;-50
2022/05/22 02:49:04;;;;;;;10.27;6.32;;;;;;;-146.19;100.00;58918.88;5062650;28;20076;-48
2022/05/22 02:51:33;;;;;;;7.93;5.82;;;;;;;-146.19;100.00;58918.88;5066367;28;20076;-48
2022/05/22 02:54:01;;;;;;;8.38;6.80;;;;;;;-146.19;100.00;58918.88;5063502;28;20056;-50
2022/05/22 02:56:29;;;;;;;10.45;6.15;;;;;;;-146.19;100.00;58918.88;5064464;28;20064;-49
2022/05/22 02:58:58;;;;;;;8.15;6.40;;;;;;;-146.19;100.00;58918.88;5065445;28;20463;-48
2022/05/22 03:01:28;;;;;;;7.32;5.63;;;;;;;-146.19;100.00;58918.88;5062228;28;20492;-52
2022/05/22 03:03:56;;;;;;;6.82;5.18;;;;;;;-146.19;100.00;58918.88;5058988;28;20095;-49
2022/05/22 03:06:40;;;;;;;6.45;5.07;;;;;;;-146.19;100.00;58918.88;5063974;28;20079;-51
2022/05/22 03:09:10;;;;;;;7.63;4.82;;;;;;;-146.19;100.00;58918.88;5061371;28;20068;-50
2022/05/22 03:11:39;;;;;;;5.85;4.75;;;;;;;-146.19;100.00;58918.88;5062481;28;20079;-49
2022/05/22 03:14:08;;;;;;;8.27;4.63;;;;;;;-146.19;100.00;58918.88;5066128;28;20083;-46
2022/05/22 03:16:37;;;;;;;4.95;4.47;;;;;;;-146.19;100.00;58918.88;5059778;28;20065;-51
2022/05/22 03:19:06;;;;;;;5.07;4.57;;;;;;;-146.19;100.00;58918.88;5062302;28;20072;-47
2022/05/22 03:21:34;;;;;;;4.90;4.40;;;;;;;-146.19;100.00;58918.88;5064941;28;20079;-49
2022/05/22 03:24:02;;;;;;;6.72;4.80;;;;;;;-146.19;100.00;58918.88;5061393;28;20072;-51
2022/05/22 03:26:30;;;;;;;6.75;5.65;;;;;;;-146.19;100.00;58918.88;5059297;28;20071;-47
2022/05/22 03:28:58;;;;;;;7.03;5.05;;;;;;;-146.19;100.00;58918.88;5065203;28;20083;-48
2022/05/22 03:31:27;;;;;;;6.47;5.07;;;;;;;-146.19;100.00;58918.88;5066290;28;20072;-50
2022/05/22 03:33:56;;;;;;;6.43;5.47;;;;;;;-146.19;100.00;58918.88;5061279;28;20466;-46
2022/05/22 03:36:25;;;;;;;5.53;4.93;;;;;;;-146.19;100.00;58918.88;5063410;28;20083;-49
2022/05/22 03:38:53;;;;;;;7.15;5.45;;;;;;;-146.19;100.00;58918.88;5061751;28;20067;-48
2022/05/22 03:41:22;;;;;;;6.53;5.28;;;;;;;-146.19;100.00;58918.88;5066610;28;20071;-48
2022/05/22 03:43:51;;;;;;;8.52;5.70;;;;;;;-146.19;100.00;58918.88;5065880;28;20083;-52
2022/05/22 03:46:20;;;;;;;8.57;5.65;;;;;;;-146.19;100.00;58918.88;5062232;28;20064;-45
2022/05/22 03:48:48;;;;;;;7.00;5.32;;;;;;;-146.19;100.00;58918.88;5060637;28;20080;-49
2022/05/22 03:51:18;;;;;;;6.82;5.13;;;;;;;-146.19;100.00;58918.88;5060049;28;20079;-48
2022/05/22 03:53:46;;;;;;;5.80;5.07;;;;;;;-146.19;100.00;58918.88;5062541;28;20412;-51
2022/05/22 03:56:17;;;;;;;7.88;4.82;;;;;;;-146.19;100.00;58918.88;5057179;28;20068;-45
2022/05/22 03:58:46;;;;;;;10.20;5.07;;;;;;;-146.19;100.00;58918.88;5060472;28;20056;-51
2022/05/22 04:01:14;;;;;;;12.20;5.68;;;;;;;-146.19;100.00;58918.88;5059537;28;20775;-45
2022/05/22 04:03:43;;;;;;;9.73;6.10;;;;;;;-146.19;100.00;58918.88;5062036;28;20072;-52
2022/05/22 04:06:12;;;;;;;7.93;6.13;;;;;;;-146.19;100.00;58918.88;5060116;28;20063;-47
2022/05/22 04:08:42;;;;;;;8.45;5.20;;;;;;;-146.19;100.00;58918.88;5063916;28;20060;-47
2022/05/22 04:11:13;;;;;;;5.85;4.93;;;;;;;-146.19;100.00;58918.88;5066632;28;20068;-54
2022/05/22 04:13:41;;;;;;;6.60;5.95;;;;;;;-146.19;100.00;58918.88;5060660;28;20447;-50
2022/05/22 04:16:10;;;;;;;7.00;5.50;;;;;;;-146.19;100.00;58918.88;5059618;28;20051;-45
2022/05/22 04:18:38;;;;;;;5.40;4.90;;;;;;;-146.19;100.00;58918.88;5060907;28;20080;-49
2022/05/22 04:21:08;;;;;;;5.07;4.45;;;;;;;-146.19;100.00;58918.88;5060909;28;20068;-46
2022/05/22 04:26:28;;;;;;;4.40;3.95;;;;;;;-146.19;100.00;58918.88;5060616;28;20075;-50
2022/05/22 04:28:56;;;;;;;5.38;4.78;;;;;;;-146.19;100.00;58918.88;5062518;28;20604;-45
2022/05/22 04:31:25;;;;;;;5.72;5.22;;;;;;;-146.19;100.00;58918.88;5062691;28;20036;-56
2022/05/22 04:33:53;;;;;;;7.45;5.00;;;;;;;-146.19;100.00;58918.88;5064533;28;20499;-49
2022/05/22 04:36:22;;;;;;;10.10;5.00;;;;;;;-146.19;100.00;58918.88;5061620;28;20064;-46
2022/05/22 04:38:50;;;;;;;5.10;4.60;;;;;;;-146.19;100.00;58918.88;5062320;28;20064;-51
2022/05/22 04:41:18;;;;;;;5.35;4.70;;;;;;;-146.19;100.00;58918.88;5060013;28;20136;-49
2022/05/22 04:43:48;;;;;;;4.80;4.32;;;;;;;-146.19;100.00;58918.88;5061088;28;20072;-47
2022/05/22 04:46:16;;;;;;;5.03;4.07;;;;;;;-146.19;100.00;58918.88;5062485;28;20064;-51
2022/05/22 04:48:49;;;;;;;5.07;4.63;;;;;;;-146.19;100.00;58918.88;5063807;28;20072;-48
2022/05/22 04:51:17;;;;;;;5.50;4.90;;;;;;;-146.19;100.00;58918.88;5064201;28;20069;-48
2022/05/22 04:53:45;;;;;;;5.60;5.10;;;;;;;-146.19;100.00;58918.88;5063605;28;21307;-49
2022/05/22 04:56:14;;;;;;;4.88;4.38;;;;;;;-146.19;100.00;58918.88;5060651;28;20063;-53
2022/05/22 04:58:42;;;;;;;5.30;4.60;;;;;;;-146.19;100.00;58918.88;5059934;28;20095;-50
2022/05/22 05:01:12;;;;;;;6.45;4.68;;;;;;;-146.19;100.00;58918.88;5060165;28;20079;-46
2022/05/22 05:03:41;;;;;;;6.22;5.63;;;;;;;-146.19;100.00;58918.88;5060855;28;20551;-51
2022/05/22 05:06:09;;;;;;;5.15;4.65;;;;;;;-146.19;100.00;58918.88;5061535;28;20036;-48
2022/05/22 05:08:38;;;;;;;6.15;5.55;;;;;;;-146.19;100.00;58918.88;5060320;28;20451;-54
2022/05/22 05:11:06;;;;;;;5.93;5.30;;;;;;;-146.19;100.00;58918.88;5061025;28;20075;-48
2022/05/22 05:13:35;;;;;;;8.40;5.72;;;;;;;-146.19;100.00;58918.88;5062139;28;20068;-50
2022/05/22 05:16:05;;;;;;;6.50;5.22;;;;;;;-146.19;100.00;58918.88;5060756;28;20064;-51
2022/05/22 05:18:36;;;;;;;6.93;5.72;;;;;;;-146.19;100.00;58918.88;5061891;28;20091;-46
2022/05/22 05:21:08;;;;;;;6.28;5.78;;;;;;;-146.19;100.00;58918.88;5063120;28;20512;-52
2022/05/22 05:23:36;;;;;;;;;;;;;;;-146.19;100.00;58918.88;5062669;28;20084;-51
2022/05/22 05:26:04;;;;;;;6.57;5.97;;;;;;;-146.19;100.00;58918.88;5060060;28;19956;-49
2022/05/22 05:28:33;;;;;;;6.55;5.95;;;;;;;-146.19;100.00;58918.88;5059581;28;20064;-51
2022/05/22 05:31:02;;;;;;;7.35;5.80;;;;;;;-146.19;100.00;58918.88;5063871;28;20080;-55
2022/05/22 05:33:32;;;;;;;6.78;5.47;;;;;;;-146.19;100.00;58918.88;5066007;28;20522;-49
2022/05/22 05:36:01;;;;;;;8.35;6.10;;;;;;;-146.19;100.00;58918.88;5066750;28;20082;-52
2022/05/22 05:38:30;;;;;;;6.18;5.57;;;;;;;-146.19;100.00;58918.88;5063257;28;20075;-48
2022/05/22 05:41:18;;;;;;;8.38;5.82;;;;;;;-146.19;100.00;58918.88;5062306;28;21672;-53
2022/05/22 05:43:47;;;;;;;9.02;6.22;;;;;;;-146.19;100.00;58918.88;5066082;28;20753;-53
2022/05/22 05:46:15;;;;;;;6.18;5.60;;;;;;;-146.19;100.00;58918.88;5063250;28;20454;-48
2022/05/22 05:48:43;;;;;;;8.40;4.60;;;;;;;-146.19;100.00;58918.88;5057526;28;20084;-51
2022/05/22 05:51:14;;;;;;;8.95;5.05;;;;;;;-146.19;100.00;58918.88;5063424;28;20479;-47
2022/05/22 05:53:42;;;;;;;6.10;5.50;;;;;;;-146.19;100.00;58918.88;5063368;28;20075;-51
2022/05/22 05:56:10;;;;;;;6.45;5.50;;;;;;;-146.19;100.00;58918.88;5064586;28;20076;-50
2022/05/22 05:58:53;;;;;;;7.22;5.25;;;;;;;-146.19;100.00;58918.88;5065475;28;20072;-52
2022/05/22 06:01:22;;;;;;;6.70;5.35;;;;;;;-146.19;100.00;58918.88;5063979;28;20063;-53
2022/05/22 06:03:50;;;;;;;7.43;5.20;;;;;;;-146.19;100.00;58918.88;5067835;28;20091;-46
2022/05/22 06:06:20;;;;;;;7.45;5.65;;;;;;;-146.19;100.00;58918.88;5058811;28;20465;-50
2022/05/22 06:08:49;;;;;;;7.90;4.97;;;;;;;-146.19;100.00;58918.88;5065710;28;20061;-51
2022/05/22 06:11:17;;;;;;;6.18;4.72;;;;;;;-146.19;100.00;58918.88;5063303;28;20365;-50
2022/05/22 06:13:45;;;;;;;5.55;4.20;;;;;;;-146.19;100.00;58918.88;5062569;28;20076;-49
2022/05/22 06:16:14;;;;;;;7.55;4.28;;;;;;;-146.19;100.00;58918.88;5062726;28;20061;-54
2022/05/22 06:18:43;;;;;;;6.25;3.83;;;;;;;-146.19;100.00;58918.88;5066954;28;20091;-51
2022/05/22 06:21:13;;;;;;;6.38;3.72;;;;;;;-146.19;100.00;58918.88;5064908;28;20052;-51
2022/05/22 06:23:42;;;;;;;7.45;4.20;;;;;;;-146.19;100.00;58918.88;5062913;28;20075;-49
2022/05/22 06:26:12;;;;;;;8.07;4.00;;;;;;;-146.19;100.00;58918.88;5062706;28;20080;-48
2022/05/22 06:28:41;;;;;;;6.43;3.30;;;;;;;-146.19;100.00;58918.88;5062470;28;20111;-48
2022/05/22 06:31:09;;;;;;;3.70;3.10;;;;;;;-146.19;100.00;58918.88;5065100;28;20083;-52
2022/05/22 06:33:38;;;;;;;4.68;3.35;;;;;;;-146.19;100.00;58918.88;5065498;28;20099;-46
2022/05/22 06:36:08;;;;;;;4.90;3.30;;;;;;;-146.19;100.00;58918.88;5065930;28;20060;-53
2022/05/22 06:41:23;;;;;;;5.07;2.97;;;;;;;-146.19;100.00;58918.88;5060068;28;20057;-46
2022/05/22 06:43:52;;;;;;;4.70;2.90;;;;;;;-146.19;100.00;58918.88;5060311;28;20064;-51
2022/05/22 06:46:20;;;;;;;4.82;3.00;;;;;;;-146.19;100.00;58918.88;5059907;28;20064;-48
2022/05/22 06:48:48;;;;;;;5.15;2.88;;;;;;;-146.19;100.00;58918.88;5063270;28;20079;-47
2022/05/22 06:51:17;;;;;;;6.90;3.17;;;;;;;-146.19;100.00;58918.88;5061761;28;20515;-46
2022/05/22 06:53:45;;;;;;;4.30;2.80;;;;;;;-146.19;100.00;58918.88;5064283;28;20068;-46
2022/05/22 06:56:13;;;;;;;5.10;2.85;;;;;;;-146.19;100.00;58918.88;5060381;28;20071;-48
2022/05/22 06:58:43;;;;;;;5.53;2.58;;;;;;;-146.19;100.00;58918.88;5063446;28;20657;-46
2022/05/22 07:01:11;;;;;;;4.35;2.63;;;;;;;-146.19;100.00;58918.88;5062014;28;20087;-48
2022/05/22 07:03:42;;;;;;;3.83;2.60;;;;;;;-146.19;100.00;58918.88;5066392;28;20103;-50
2022/05/22 07:06:10;;;;;;;3.72;2.20;;;;;;;-146.19;100.00;58918.88;5059829;28;20078;-49
2022/05/22 07:08:39;;;;;;;3.80;2.28;;;;;;;-146.19;100.00;58918.88;5064357;28;20057;-46
2022/05/22 07:13:54;;;;;;;5.78;2.63;;;;;;;-146.19;100.00;58918.88;5063009;28;20530;-51
2022/05/22 07:16:22;;;;;;;3.97;2.20;;;;;;;-146.19;100.00;58918.88;5064760;28;20482;-51
2022/05/22 07:18:53;;;;;;;5.00;2.47;;;;;;;-146.19;100.00;58918.88;5062942;28;20080;-57
2022/05/22 07:21:21;;;;;;;3.20;2.05;;;;;;;-146.19;100.00;58918.88;5064034;28;20075;-51
2022/05/22 07:23:49;;;;;;;4.13;2.50;;;;;;;-146.19;100.00;58918.88;5063276;28;20056;-54
2022/05/22 07:26:19;;;;;;;5.07;2.30;;;;;;;-146.19;100.00;58918.88;5056824;28;20479;-48
2022/05/22 07:28:48;;;;;;;4.10;2.65;;;;;;;-146.19;100.00;58918.88;5062478;28;22978;-55
2022/05/22 07:31:19;;;;;;;4.72;2.45;;;;;;;-146.19;100.00;58918.88;5059065;28;20064;-53
2022/05/22 07:33:47;;;;;;;5.43;2.60;;;;;;;-146.19;100.00;58918.88;5063135;28;20068;-53
2022/05/22 07:36:16;;;;;;;4.40;2.78;;;;;;;-146.19;100.00;58918.88;5063543;28;20083;-49
2022/05/22 07:38:45;;;;;;;4.15;2.42;;;;;;;-146.19;100.00;58918.88;5062810;28;20071;-49
2022/05/22 07:41:14;;;;;;;4.13;2.38;;;;;;;-146.19;100.00;58918.88;5062373;28;20060;-45
2022/05/22 07:43:42;;;;;;;6.40;2.40;;;;;;;-146.19;100.00;58918.88;5061192;28;20514;-51
2022/05/22 07:46:12;;;;;;;3.92;2.60;;;;;;;-146.19;100.00;58918.88;5055199;28;20092;-52
2022/05/22 07:48:43;;;;;;;4.57;2.35;;;;;;;-146.19;100.00;58918.88;5060558;28;20075;-47
2022/05/22 07:51:12;;;;;;;3.97;2.15;;;;;;;-146.19;100.00;58918.88;5053421;28;20083;-50
2022/05/22 07:53:40;;;;;;;4.55;2.17;;;;;;;-146.19;100.00;58918.88;5061956;28;20527;-45
2022/05/22 07:56:09;;;;;;;5.10;2.63;;;;;;;-146.19;100.00;58918.88;5059521;28;20075;-51
2022/05/22 07:58:37;;;;;;;3.42;2.60;;;;;;;-146.19;100.00;58918.88;5061415;28;20549;-49
2022/05/22 08:01:05;;;;;;;5.03;2.50;;;;;;;-146.19;100.00;58918.88;5062393;28;20087;-47
2022/05/22 08:03:34;;;;;;;3.05;2.28;;;;;;;-146.19;100.00;58918.88;5065183;28;20076;-48
2022/05/22 08:06:04;;;;;;;3.63;1.92;;;;;;;-146.19;100.00;58918.88;5067192;28;20074;-51
2022/05/22 08:08:32;;;;;;;3.72;2.03;;;;;;;-146.19;100.00;58918.88;5059984;28;20076;-46
2022/05/22 08:11:10;;;;;;;4.20;1.70;;;;;;;-146.19;100.00;58918.88;5062754;28;20076;-50
2022/05/22 08:13:39;;;;;;;4.70;2.05;;;;;;;-146.19;100.00;58918.88;5063808;28;20095;-46
2022/05/22 08:16:08;;;;;;;3.83;1.77;;;;;;;-146.19;100.00;58918.88;5056316;28;20075;-47
2022/05/22 08:18:36;;;;;;;3.53;2.03;;;;;;;-146.19;100.00;58918.88;5059950;28;20555;-49
2022/05/22 08:21:06;;;;;;;5.25;2.05;;;;;;;-146.19;100.00;58918.88;5046287;28;20059;-54
2022/05/22 08:23:35;;;;;;;5.00;2.00;;;;;;;-146.19;100.00;58918.88;5061550;28;20064;-50
2022/05/22 08:26:03;;;;;;;5.10;2.10;;;;;;;-146.19;100.00;58918.88;5059015;28;20068;-48
2022/05/22 08:28:32;;;;;;;5.43;2.35;;;;;;;-146.19;100.00;58918.88;5063034;28;20056;-44
2022/05/22 08:31:00;;;;;;;3.13;2.00;;;;;;;-146.19;100.00;58918.88;5065476;28;20077;-51
2022/05/22 08:33:28;;;;;;;3.92;2.10;;;;;;;-146.19;100.00;58918.88;5066662;28;20080;-50
2022/05/22 08:35:56;;;;;;;3.53;1.90;;;;;;;-146.19;100.00;58918.88;5065910;28;20060;-47
2022/05/22 08:38:26;;;;;;;4.18;1.70;;;;;;;-146.19;100.00;58918.88;5064282;28;20060;-51
2022/05/22 08:40:59;;;;;;;2.70;1.77;;;;;;;-146.19;100.00;58918.88;5064402;28;20069;-49
2022/05/22 08:43:33;;;;;;;4.55;1.90;;;;;;;-146.19;100.00;58918.88;5060303;28;20503;-52
2022/05/22 08:46:09;;;;;;;3.10;1.88;;;;;;;-146.19;100.00;58918.88;5062473;28;20072;-48
2022/05/22 08:48:41;;;;;;;3.83;2.30;;;;;;;-146.19;100.00;58918.88;5059897;28;20076;-49
2022/05/22 08:51:14;;;;;;;3.15;1.80;;;;;;;-146.19;100.00;58918.88;5064685;28;20071;-52
2022/05/22 08:53:49;;;;;;;4.47;1.88;;;;;;;-146.19;100.00;58918.88;5065855;28;20106;-46
2022/05/22 08:59:06;;;;;;;4.30;2.00;;;;;;;-146.19;100.00;58918.88;5010211;28;20522;-49
2022/05/22 09:01:39;;;;;;;3.33;1.80;;;;;;;-146.19;100.00;58918.88;5064855;28;20068;-51
2022/05/22 09:04:22;;;;;;;4.95;1.85;;;;;;;-146.19;100.00;58918.88;5066674;28;20814;-48
2022/05/22 09:06:59;;;;;;;4.13;1.58;;;;;;;-146.19;100.00;58918.88;5070171;28;20470;-52
2022/05/22 09:09:30;;;;;;;2.47;1.70;;;;;;;-146.19;100.00;58918.88;5065721;28;21512;-52
2022/05/22 09:12:09;;;;;;;3.65;1.80;;;;;;;-146.19;100.00;58918.88;5070225;28;20075;-48
2022/05/22 09:14:40;;;;;;;4.45;1.80;;;;;;;-146.19;100.00;58918.88;5064744;28;20069;-52
2022/05/22 09:17:15;;;;;;;2.03;1.70;;;;;;;-146.19;100.00;58918.88;5065651;28;20075;-48
2022/05/22 09:19:45;;;;;;;3.78;2.10;;;;;;;-146.19;100.00;58918.88;5067216;28;20060;-53
2022/05/22 09:22:18;;;;;;;;;;;;;;;-146.19;100.00;58918.88;5066901;28;20530;-53
2022/05/22 09:24:55;;;;;;;3.97;1.80;;;;;;;-146.19;100.00;58918.88;5067809;28;19990;-46
2022/05/22 09:27:30;;;;;;;5.30;1.73;;;;;;;-146.19;100.00;58918.88;5069204;28;20526;-46
2022/05/22 09:30:04;;;;;;;4.93;1.98;;;;;;;-146.19;100.00;58918.88;5066696;28;20068;-45
2022/05/22 09:32:45;;;;;;;2.70;1.90;;;;;;;-146.19;100.00;58918.88;5068709;28;20064;-50
2022/05/22 09:35:21;;;;;;;3.00;1.95;;;;;;;-146.19;100.00;58918.88;5067226;28;20071;-53
2022/05/22 09:38:02;;;;;;;4.97;1.88;;;;;;;-146.19;100.00;58918.88;5064282;28;20036;-46
2022/05/22 09:40:38;;;;;;;5.68;1.85;;;;;;;-146.19;100.00;58918.88;5067691;28;20056;-48
2022/05/22 09:43:38;;;;;;;2.80;1.67;;;;;;;-146.19;100.00;58918.88;5064439;28;20071;-49
2022/05/22 09:46:18;;;;;;;5.25;1.80;;;;;;;-146.19;100.00;58918.88;5065618;28;20510;-46
2022/05/22 09:49:12;;;;;;;7.00;1.70;;;;;;;-146.19;100.00;58918.88;5065301;28;20090;-55
2022/05/22 09:51:54;;;;;;;5.35;1.90;;;;;;;-146.19;100.00;58918.88;5053963;28;20077;-52
2022/05/22 09:54:45;;;;;;;2.20;1.65;;;;;;;-146.19;100.00;58918.88;5063607;28;20352;-46
2022/05/22 09:57:38;;;;;;;3.55;1.70;;;;;;;-146.19;100.00;58918.88;5067779;28;20450;-48
2022/05/22 10:00:10;;;;;;;3.08;1.73;;;;;;;-146.19;100.00;58918.88;5063160;28;20082;-51
2022/05/22 10:02:42;;;;;;;3.13;1.70;;;;;;;-146.19;100.00;58918.88;5070167;28;20056;-46
2022/05/22 10:05:19;;;;;;;2.78;1.80;;;;;;;-146.19;100.00;58918.88;5067068;28;20056;-48
2022/05/22 10:07:56;;;;;;;5.97;1.80;;;;;;;-146.19;100.00;58918.88;5066594;28;20569;-47
2022/05/22 10:10:30;;;;;;;3.05;1.95;;;;;;;-146.19;100.00;58918.88;5064489;28;20068;-52
2022/05/22 10:13:06;;;;;;;3.15;1.90;;;;;;;-146.19;100.00;58918.88;5060350;28;20060;-47
2022/05/22 10:15:47;;;;;;;4.00;2.10;;;;;;;-146.19;100.00;58918.88;5066661;28;20084;-53
2022/05/22 10:18:26;;;;;;;4.78;1.92;;;;;;;-146.19;100.00;58918.88;5065699;28;20056;-48
2022/05/22 10:21:01;;;;;;;3.55;1.98;;;;;;;-146.19;100.00;58918.88;5063343;28;20069;-51
2022/05/22 10:23:43;;;;;;;4.72;1.80;;;;;;;-146.19;100.00;58918.88;5067533;28;20068;-47
2022/05/22 10:26:20;;;;;;;3.80;1.83;;;;;;;-146.19;100.00;58918.88;5065544;28;20071;-51
2022/05/22 10:28:54;;;;;;;4.05;1.77;;;;;;;-146.19;100.00;58918.88;5063307;28;20094;-45
2022/05/22 10:31:25;;;;;;;3.50;1.88;;;;;;;-146.19;100.00;58918.88;5061883;28;20083;-48
2022/05/22 10:33:58;;;;;;;2.42;1.80;;;;;;;-146.19;100.00;58918.88;5063582;28;20527;-46
2022/05/22 10:36:29;;;;;;;3.33;1.88;;;;;;;-146.19;100.00;58918.88;5067926;28;20072;-46
2022/05/22 10:39:03;;;;;;;3.80;1.95;;;;;;;-146.19;100.00;58918.88;5061585;28;20075;-46
2022/05/22 10:44:24;;;;;;;4.13;2.10;;;;;;;-146.19;100.00;58918.88;5063268;28;20060;-48
2022/05/22 10:46:54;;;;;;;4.50;2.10;;;;;;;-146.19;100.00;58918.88;5066375;28;20071;-51
2022/05/22 10:49:26;;;;;;;4.97;1.98;;;;;;;-146.19;100.00;58918.88;5065159;28;20083;-52
2022/05/22 10:51:56;;;;;;;4.28;2.00;;;;;;;-146.19;100.00;58918.88;5062945;28;20079;-50
2022/05/22 10:54:27;;;;;;;4.93;1.90;;;;;;;-146.19;100.00;58918.88;5064693;28;20068;-49
2022/05/22 10:57:06;;;;;;;3.92;2.13;;;;;;;-146.19;100.00;58918.88;5065668;28;20059;-48
2022/05/22 10:59:36;;;;;;;2.90;2.00;;;;;;;-146.19;100.00;58918.88;5061792;28;20076;-55
2022/05/22 11:02:05;;;;;;;3.53;2.13;;;;;;;-146.19;100.00;58918.88;5068176;28;20061;-47
2022/05/22 11:04:37;;;;;;;3.35;2.08;;;;;;;-146.19;100.00;58918.88;5066975;28;20491;-46
2022/05/22 11:07:06;;;;;;;3.08;2.00;;;;;;;-146.19;100.00;58918.88;5064167;28;20064;-51
2022/05/22 11:09:41;;;;;;;4.53;1.80;;;;;;;-146.19;100.00;58918.88;5061873;28;20068;-47
2022/05/22 11:12:11;;;;;;;3.78;1.90;;;;;;;-146.19;100.00;58918.88;5060742;28;20064;-48
2022/05/22 11:14:41;;;;;;;4.88;1.70;;;;;;;-146.19;100.00;58918.88;5061455;28;20508;-47
2022/05/22 11:17:11;;;;;;;2.03;1.80;;;;;;;-146.19;100.00;58918.88;5061996;28;20064;-49
2022/05/22 11:19:41;;;;;;;2.95;1.70;;;;;;;-146.19;100.00;58918.88;5062732;28;20064;-47
2022/05/22 11:22:20;;;;;;;3.83;1.98;;;;;;;-146.19;100.00;58918.88;5064123;28;20086;-45
2022/05/22 11:24:56;;;;;;;3.58;1.98;;;;;;;-146.19;100.00;58918.88;5061171;28;20057;-48
2022/05/22 11:27:33;;;;;;;4.28;2.00;;;;;;;-146.19;100.00;58918.88;5063529;28;20515;-55
2022/05/22 11:30:12;;;;;;;3.83;1.90;;;;;;;-146.19;100.00;58918.88;5058032;28;20064;-47
2022/05/22 11:32:50;;;;;;;2.83;2.00;;;;;;;-146.19;100.00;58918.88;5048984;28;20102;-52
2022/05/22 11:35:29;;;;;;;5.68;2.25;;;;;;;-146.19;100.00;58918.88;5066557;28;20090;-49
2022/05/22 11:38:11;;;;;;;3.95;2.10;;;;;;;-146.19;100.00;58918.88;5061902;28;20074;-51
2022/05/22 11:40:45;;;;;;;6.95;1.88;;;;;;;-146.19;100.00;58918.88;5067127;28;20068;-50
2022/05/22 11:43:24;;;;;;;3.95;2.17;;;;;;;-146.19;100.00;58918.88;5064503;28;20063;-48